Salford, United Kingdom
Current Conditions -  °F | °C
As of 9:50 PM on Monday 24 Nov 2014 (Local Time) from EGCC Reporting Station
Clear Clear  
Wind Chill: 33°   Ceiling: Unl
Heat Index: 37°   Visibility: 6mi
Dew Point: 37°   Wind: 6mph
Humidity: 100%   Direction: 170°S
Pressure: 30.3"   Gusts: NA
Location:  53.48°N, 2.31°W
Report Text: EGCC 242150Z 17005KT CAVOK 03/03 Q1026 NOSIG
Loading
Personal Weather Stations






























Interactive Weather Map New forecast layout! Learn more

10-Day Weather Forecast

Advertisements
Track Severe Weather on mobile